createdAt,value
2023-01-13T00:02:12.204Z,17.03
2023-01-13T00:04:42.025Z,22.87
2023-01-13T00:07:13.342Z,15.43
2023-01-13T00:09:45.781Z,21.77
2023-01-13T00:12:15.518Z,20.37
2023-01-13T00:14:45.820Z,14.07
2023-01-13T00:17:15.918Z,19.70
2023-01-13T00:19:46.990Z,16.63
2023-01-13T00:22:16.397Z,19.87
2023-01-13T00:24:48.235Z,19.53
2023-01-13T00:27:18.476Z,14.43
2023-01-13T00:29:48.552Z,16.90
2023-01-13T00:32:18.564Z,18.00
2023-01-13T00:34:48.528Z,15.27
2023-01-13T00:37:19.259Z,14.33
2023-01-13T00:39:51.995Z,12.90
2023-01-13T00:42:39.793Z,14.50
2023-01-13T00:45:09.854Z,16.00
2023-01-13T00:47:40.740Z,15.60
2023-01-13T00:50:13.279Z,12.83
2023-01-13T00:52:43.009Z,12.60
2023-01-13T00:55:14.333Z,16.47
2023-01-13T00:57:44.449Z,14.17
2023-01-13T01:00:16.538Z,15.53
2023-01-13T01:02:52.927Z,12.63
2023-01-13T01:05:22.528Z,13.73
2023-01-13T01:07:52.238Z,10.73
2023-01-13T01:10:24.411Z,13.23
2023-01-13T01:12:54.547Z,9.83
2023-01-13T01:15:24.732Z,10.40
2023-01-13T01:17:55.188Z,11.30
2023-01-13T01:20:25.514Z,10.27
2023-01-13T01:22:55.565Z,9.60
2023-01-13T01:25:27.157Z,9.77
2023-01-13T01:27:57.619Z,11.20
2023-01-13T01:30:27.574Z,8.83
2023-01-13T01:32:59.203Z,8.10
2023-01-13T01:35:28.974Z,9.90
2023-01-13T01:37:59.763Z,9.53
2023-01-13T01:40:31.262Z,9.03
2023-01-13T01:43:18.624Z,9.47
2023-01-13T01:45:48.416Z,10.70
2023-01-13T01:48:18.301Z,12.37
2023-01-13T01:50:49.407Z,10.20
2023-01-13T01:53:23.056Z,8.93
2023-01-13T01:55:54.166Z,9.37
2023-01-13T01:58:27.870Z,10.93
2023-01-13T02:00:58.140Z,8.03
2023-01-13T02:03:28.998Z,9.33
2023-01-13T02:05:59.381Z,9.53
2023-01-13T02:08:29.543Z,8.70
2023-01-13T02:11:00.943Z,11.53
2023-01-13T02:13:29.879Z,9.63
2023-01-13T02:16:09.265Z,10.13
2023-01-13T02:18:48.757Z,10.17
2023-01-13T02:21:53.031Z,8.57
2023-01-13T02:24:56.941Z,8.40
2023-01-13T02:27:49.918Z,10.20
2023-01-13T02:30:45.724Z,8.67
2023-01-13T02:33:40.515Z,7.97
2023-01-13T02:36:17.058Z,7.30
2023-01-13T02:38:52.901Z,8.67
2023-01-13T02:41:46.158Z,7.97
2023-01-13T02:44:22.128Z,8.73
2023-01-13T02:46:57.491Z,7.80
2023-01-13T02:49:35.157Z,10.67
2023-01-13T02:52:10.862Z,8.30
2023-01-13T02:54:43.992Z,8.80
2023-01-13T02:57:15.020Z,9.03
2023-01-13T02:59:45.761Z,8.13
2023-01-13T03:02:21.194Z,7.67
2023-01-13T03:04:54.717Z,7.90
2023-01-13T03:07:47.314Z,8.40
2023-01-13T03:10:38.027Z,7.27
2023-01-13T03:13:22.637Z,7.40
2023-01-13T03:16:00.277Z,7.10
2023-01-13T03:18:42.822Z,7.50
2023-01-13T03:21:18.617Z,9.40
2023-01-13T03:23:52.835Z,7.20
2023-01-13T03:26:30.698Z,6.90
2023-01-13T03:29:07.320Z,7.00
2023-01-13T03:31:40.091Z,8.20
2023-01-13T03:34:16.139Z,6.87
2023-01-13T03:36:47.238Z,10.97
2023-01-13T03:39:22.478Z,8.83
2023-01-13T03:41:54.922Z,7.43
2023-01-13T03:44:32.949Z,7.23
2023-01-13T03:47:14.199Z,9.33
2023-01-13T03:49:55.754Z,7.27
2023-01-13T03:52:29.852Z,7.30
2023-01-13T03:55:04.472Z,7.17
2023-01-13T03:57:38.372Z,8.27
2023-01-13T04:00:11.583Z,17.73
2023-01-13T04:02:50.332Z,9.30
2023-01-13T04:05:22.517Z,9.70
2023-01-13T04:07:58.657Z,9.70
2023-01-13T04:10:32.023Z,10.63
2023-01-13T04:13:04.843Z,13.23
2023-01-13T04:15:39.514Z,12.93
2023-01-13T04:18:28.889Z,13.10
2023-01-13T04:21:02.476Z,14.00
2023-01-13T04:23:32.968Z,16.37
2023-01-13T04:26:03.697Z,16.30
2023-01-13T04:28:35.318Z,14.90
2023-01-13T04:31:06.123Z,16.40
2023-01-13T04:33:36.273Z,15.10
2023-01-13T04:36:09.165Z,13.27
2023-01-13T04:38:38.937Z,13.60
2023-01-13T04:41:09.015Z,12.90
2023-01-13T04:43:38.537Z,10.93
2023-01-13T04:46:07.985Z,13.87
2023-01-13T04:48:37.674Z,13.20
2023-01-13T04:51:08.837Z,11.77
2023-01-13T04:53:39.850Z,15.10
2023-01-13T04:56:10.337Z,13.37
2023-01-13T04:58:40.628Z,11.03
2023-01-13T05:01:10.819Z,13.00
2023-01-13T05:03:41.289Z,15.27
2023-01-13T05:06:13.588Z,13.93
2023-01-13T05:08:43.576Z,15.00
2023-01-13T05:11:27.277Z,12.90
2023-01-13T05:14:15.068Z,13.53
2023-01-13T05:17:03.627Z,15.03
2023-01-13T05:19:36.574Z,16.83
2023-01-13T05:22:25.481Z,20.83
2023-01-13T05:25:13.392Z,14.00
2023-01-13T05:27:43.578Z,16.73
2023-01-13T05:30:14.784Z,13.87
2023-01-13T05:32:44.309Z,17.47
2023-01-13T05:35:16.589Z,14.70
2023-01-13T05:37:49.337Z,12.67
2023-01-13T05:40:38.199Z,12.50
2023-01-13T05:43:25.229Z,12.27
2023-01-13T05:45:59.000Z,12.50
2023-01-13T05:48:30.930Z,12.20
2023-01-13T05:51:01.673Z,10.63
2023-01-13T05:53:34.201Z,14.83
2023-01-13T05:56:07.528Z,14.53
2023-01-13T05:58:38.061Z,15.63
2023-01-13T06:01:11.938Z,15.17
2023-01-13T06:03:42.322Z,14.07
2023-01-13T06:06:12.630Z,15.47
2023-01-13T06:08:44.030Z,14.13
2023-01-13T06:11:14.046Z,15.90
2023-01-13T06:13:43.748Z,15.10
2023-01-13T06:16:13.626Z,17.80
2023-01-13T06:18:43.400Z,15.93
2023-01-13T06:21:13.725Z,13.83
2023-01-13T06:23:45.010Z,15.53
2023-01-13T06:26:17.442Z,16.37
2023-01-13T06:28:47.804Z,14.80
2023-01-13T06:31:17.662Z,13.97
2023-01-13T06:33:52.702Z,16.50
2023-01-13T06:36:24.794Z,16.43
2023-01-13T06:39:01.574Z,15.77
2023-01-13T06:41:51.684Z,13.50
2023-01-13T06:44:22.932Z,13.67
2023-01-13T06:46:54.262Z,14.60
2023-01-13T06:49:24.607Z,13.27
2023-01-13T06:51:54.971Z,13.83
2023-01-13T06:54:27.897Z,21.13
2023-01-13T06:56:57.961Z,18.77
2023-01-13T06:59:28.161Z,17.43
2023-01-13T07:01:58.225Z,18.10
2023-01-13T07:04:28.443Z,20.50
2023-01-13T07:06:59.291Z,15.47
2023-01-13T07:09:30.924Z,16.50
2023-01-13T07:12:00.652Z,16.40
2023-01-13T07:14:47.620Z,14.43
2023-01-13T07:17:25.573Z,17.83
2023-01-13T07:19:56.001Z,14.67
2023-01-13T07:22:26.296Z,16.50
2023-01-13T07:24:58.893Z,17.47
2023-01-13T07:27:28.757Z,18.33
2023-01-13T07:29:58.027Z,19.97
2023-01-13T07:32:27.606Z,18.27
2023-01-13T07:34:58.901Z,19.87
2023-01-13T07:37:28.947Z,19.87
2023-01-13T07:40:01.270Z,17.87
2023-01-13T07:42:48.960Z,19.10
2023-01-13T07:45:18.689Z,19.27
2023-01-13T07:47:49.206Z,17.20
2023-01-13T07:50:19.158Z,16.13
2023-01-13T07:52:49.139Z,16.40
2023-01-13T07:55:20.477Z,15.23
2023-01-13T07:57:50.871Z,15.67
2023-01-13T08:00:23.582Z,14.77
2023-01-13T08:02:53.290Z,14.47
2023-01-13T08:05:24.073Z,14.93
2023-01-13T08:07:53.990Z,14.90
2023-01-13T08:10:26.411Z,13.90
2023-01-13T08:13:13.654Z,16.90
2023-01-13T08:15:43.793Z,14.70
2023-01-13T08:18:14.811Z,12.30
2023-01-13T08:20:45.189Z,14.73
2023-01-13T08:23:14.967Z,13.17
2023-01-13T08:25:46.810Z,14.07
2023-01-13T08:28:17.209Z,13.07
2023-01-13T08:30:47.442Z,12.57
2023-01-13T08:33:17.489Z,12.43
2023-01-13T08:35:48.544Z,12.87
2023-01-13T08:38:20.272Z,9.30
2023-01-13T08:40:51.588Z,8.60
2023-01-13T08:43:22.294Z,9.97
2023-01-13T08:45:59.125Z,8.83
2023-01-13T08:48:31.632Z,6.67
2023-01-13T08:51:06.092Z,8.70
2023-01-13T08:53:36.687Z,13.93
2023-01-13T08:56:13.454Z,14.40
2023-01-13T08:58:43.375Z,11.40
2023-01-13T09:01:15.706Z,14.77
2023-01-13T09:03:45.861Z,17.07
2023-01-13T09:06:16.322Z,13.63
2023-01-13T09:08:46.291Z,17.80
2023-01-13T09:11:38.885Z,15.10
2023-01-13T09:14:08.564Z,17.40
2023-01-13T09:16:39.472Z,18.80
2023-01-13T09:19:09.784Z,22.13
2023-01-13T09:21:39.857Z,16.50
2023-01-13T09:24:10.182Z,26.87
2023-01-13T09:26:42.891Z,16.77
2023-01-13T09:29:13.186Z,12.17
2023-01-13T09:31:44.388Z,20.70
2023-01-13T09:34:35.420Z,13.40
2023-01-13T09:37:06.314Z,13.30
2023-01-13T09:39:37.669Z,23.93
2023-01-13T09:42:32.784Z,19.70
2023-01-13T09:45:07.622Z,21.30
2023-01-13T09:47:44.415Z,14.90
2023-01-13T09:50:25.721Z,12.63
2023-01-13T09:52:55.829Z,15.67
2023-01-13T09:55:30.810Z,16.30
2023-01-13T09:58:04.513Z,13.77
2023-01-13T10:00:40.833Z,16.50
2023-01-13T10:03:21.535Z,14.37
2023-01-13T10:05:57.937Z,10.40
2023-01-13T10:08:31.118Z,9.10
2023-01-13T10:11:23.851Z,15.70
2023-01-13T10:13:58.905Z,16.70
2023-01-13T10:16:42.314Z,11.77
2023-01-13T10:19:19.968Z,14.27
2023-01-13T10:22:22.029Z,12.57
2023-01-13T10:25:36.378Z,7.17
2023-01-13T10:28:12.646Z,8.63
2023-01-13T10:30:45.635Z,18.93
2023-01-13T10:33:18.170Z,12.87
2023-01-13T10:36:01.327Z,13.17
2023-01-13T10:38:38.734Z,10.27
2023-01-13T10:41:25.513Z,21.53
2023-01-13T10:44:08.539Z,20.63
2023-01-13T10:46:56.168Z,19.90
2023-01-13T10:49:33.143Z,28.60
2023-01-13T10:52:04.409Z,13.37
2023-01-13T10:54:54.519Z,9.80
2023-01-13T10:57:26.235Z,12.97
2023-01-13T10:59:56.825Z,12.47
2023-01-13T11:02:32.570Z,19.43
2023-01-13T11:05:11.722Z,16.07
2023-01-13T11:07:43.750Z,16.23
2023-01-13T11:10:23.480Z,25.00
2023-01-13T11:13:00.517Z,19.93
2023-01-13T11:15:40.695Z,17.50
2023-01-13T11:18:20.818Z,18.50
2023-01-13T11:20:53.162Z,14.63
2023-01-13T11:23:27.686Z,20.83
2023-01-13T11:26:04.398Z,18.37
2023-01-13T11:28:43.231Z,21.47
2023-01-13T11:31:18.691Z,17.33
2023-01-13T11:33:55.812Z,16.97
2023-01-13T11:36:30.575Z,23.00
2023-01-13T11:39:05.632Z,19.87
2023-01-13T11:41:46.775Z,11.93
2023-01-13T11:44:21.517Z,13.73
2023-01-13T11:46:52.526Z,11.40
2023-01-13T11:49:28.792Z,12.80
2023-01-13T11:52:06.396Z,17.93
2023-01-13T11:54:58.553Z,11.60
2023-01-13T11:57:47.976Z,10.07
2023-01-13T12:00:29.695Z,12.40
2023-01-13T12:03:11.015Z,12.40
2023-01-13T12:05:45.143Z,14.77
2023-01-13T12:08:26.704Z,13.43
2023-01-13T12:11:03.064Z,12.00
2023-01-13T12:13:42.768Z,13.07
2023-01-13T12:16:18.925Z,14.73
2023-01-13T12:19:05.344Z,11.47
2023-01-13T12:21:42.433Z,18.60
2023-01-13T12:24:19.572Z,14.63
2023-01-13T12:26:54.368Z,14.70
2023-01-13T12:29:30.893Z,12.67
2023-01-13T12:32:03.594Z,14.63
2023-01-13T12:34:50.992Z,16.10
2023-01-13T12:37:30.415Z,13.00
2023-01-13T12:40:14.110Z,14.57
2023-01-13T12:43:05.160Z,13.73
2023-01-13T12:45:36.455Z,17.53
2023-01-13T12:48:07.704Z,16.87
2023-01-13T12:50:44.879Z,10.63
2023-01-13T12:53:39.301Z,11.93
2023-01-13T12:56:29.919Z,16.67
2023-01-13T12:59:36.815Z,15.57
2023-01-13T13:02:34.868Z,11.17
2023-01-13T13:05:39.386Z,16.67
2023-01-13T13:08:16.611Z,13.17
2023-01-13T13:11:03.687Z,11.40
2023-01-13T13:13:44.964Z,13.73
2023-01-13T13:16:54.157Z,14.40
2023-01-13T13:19:47.165Z,17.13
2023-01-13T13:22:37.132Z,14.50
2023-01-13T13:25:28.312Z,13.07
2023-01-13T13:28:14.606Z,15.20
2023-01-13T13:30:48.785Z,17.53
2023-01-13T13:33:36.941Z,13.17
2023-01-13T13:36:17.238Z,14.03
2023-01-13T13:39:22.444Z,16.07
2023-01-13T13:42:12.430Z,11.03
2023-01-13T13:45:05.533Z,17.27
2023-01-13T13:47:39.057Z,12.67
2023-01-13T13:50:12.057Z,9.40
2023-01-13T13:52:51.739Z,11.33
2023-01-13T13:55:24.025Z,9.50
2023-01-13T13:57:57.732Z,10.80
2023-01-13T14:00:32.672Z,12.43
2023-01-13T14:03:03.808Z,11.80
2023-01-13T14:05:35.769Z,10.10
2023-01-13T14:08:15.522Z,15.10
2023-01-13T14:10:47.461Z,10.13
2023-01-13T14:13:22.312Z,12.60
2023-01-13T14:15:59.316Z,12.40
2023-01-13T14:18:30.487Z,12.30
2023-01-13T14:21:03.905Z,9.37
2023-01-13T14:23:35.088Z,11.87
2023-01-13T14:26:09.781Z,7.60
2023-01-13T14:28:41.448Z,10.20
2023-01-13T14:31:14.271Z,8.63
2023-01-13T14:33:46.657Z,9.03
2023-01-13T14:36:19.278Z,11.05
2023-01-13T14:38:52.129Z,8.17
2023-01-13T14:41:24.585Z,13.83
2023-01-13T14:43:59.803Z,14.20
2023-01-13T14:46:42.644Z,8.97
2023-01-13T14:49:22.574Z,9.63
2023-01-13T14:51:52.801Z,11.27
2023-01-13T14:54:45.336Z,14.83
2023-01-13T14:57:25.758Z,8.60
2023-01-13T15:00:08.386Z,13.97
2023-01-13T15:02:48.347Z,10.33
2023-01-13T15:05:48.158Z,11.93
2023-01-13T15:08:39.668Z,12.50
2023-01-13T15:11:17.298Z,9.20
2023-01-13T15:13:53.744Z,13.73
2023-01-13T15:16:26.621Z,19.50
2023-01-13T15:19:00.195Z,12.57
2023-01-13T15:21:30.432Z,10.70
2023-01-13T15:24:00.626Z,9.47
2023-01-13T15:26:34.191Z,11.90
2023-01-13T15:29:07.545Z,9.73
2023-01-13T15:31:38.116Z,14.83
2023-01-13T15:34:09.589Z,13.03
2023-01-13T15:36:39.564Z,17.17
2023-01-13T15:39:12.233Z,12.50
2023-01-13T15:41:59.117Z,15.33
2023-01-13T15:44:46.251Z,13.50
2023-01-13T15:47:16.670Z,16.17
2023-01-13T15:49:48.155Z,14.97
2023-01-13T15:52:22.763Z,15.80
2023-01-13T15:54:54.116Z,14.10
2023-01-13T15:57:25.985Z,18.20
2023-01-13T15:59:58.529Z,27.20
2023-01-13T16:02:30.290Z,43.17
2023-01-13T16:05:01.729Z,24.50
2023-01-13T16:07:32.486Z,19.40
2023-01-13T16:10:04.145Z,26.10
2023-01-13T16:12:34.880Z,14.17
2023-01-13T16:15:04.641Z,17.20
2023-01-13T16:17:36.501Z,15.30
2023-01-13T16:20:16.359Z,15.03
2023-01-13T16:22:47.097Z,13.63
2023-01-13T16:25:19.610Z,11.67
2023-01-13T16:27:50.512Z,15.60
2023-01-13T16:30:27.034Z,13.63
2023-01-13T16:32:57.427Z,12.27
2023-01-13T16:35:29.529Z,23.03
2023-01-13T16:38:00.100Z,10.30
2023-01-13T16:40:33.693Z,15.80
2023-01-13T16:43:07.320Z,13.17
2023-01-13T16:45:37.640Z,12.00
2023-01-13T16:48:09.143Z,12.87
2023-01-13T16:50:42.692Z,15.87
2023-01-13T16:53:13.029Z,17.40
2023-01-13T16:55:43.964Z,24.07
2023-01-13T16:58:18.859Z,27.13
2023-01-13T17:00:49.568Z,31.77
2023-01-13T17:03:19.674Z,28.17
2023-01-13T17:05:51.174Z,30.50
2023-01-13T17:08:21.227Z,23.67
2023-01-13T17:10:53.528Z,29.33
2023-01-13T17:13:24.852Z,27.50
2023-01-13T17:15:54.814Z,22.07
2023-01-13T17:18:25.968Z,24.47
2023-01-13T17:20:58.990Z,18.23
2023-01-13T17:23:31.778Z,20.73
2023-01-13T17:26:01.804Z,20.20
2023-01-13T17:28:32.030Z,23.33
2023-01-13T17:31:01.636Z,23.03
2023-01-13T17:33:37.582Z,17.53
2023-01-13T17:36:09.851Z,18.57
2023-01-13T17:38:39.622Z,22.50
2023-01-13T17:41:09.967Z,22.77
2023-01-13T17:43:39.448Z,19.83
2023-01-13T17:46:11.546Z,21.17
2023-01-13T17:48:42.039Z,18.83
2023-01-13T17:51:15.755Z,19.80
2023-01-13T17:53:46.582Z,20.23
2023-01-13T17:56:19.254Z,25.27
2023-01-13T17:58:50.006Z,24.03
2023-01-13T18:01:21.953Z,16.90
2023-01-13T18:03:52.468Z,20.67
2023-01-13T18:06:26.220Z,18.57
2023-01-13T18:08:56.566Z,18.73
2023-01-13T18:11:26.967Z,17.50
2023-01-13T18:13:58.629Z,19.23
2023-01-13T18:16:30.957Z,19.53
2023-01-13T18:19:15.522Z,20.53
2023-01-13T18:22:04.694Z,16.00
2023-01-13T18:24:51.891Z,20.80
2023-01-13T18:27:27.089Z,16.97
2023-01-13T18:29:58.766Z,17.30
2023-01-13T18:32:32.990Z,23.03
2023-01-13T18:35:07.084Z,17.93
2023-01-13T18:37:40.762Z,17.60
2023-01-13T18:40:13.771Z,17.73
2023-01-13T18:42:51.567Z,16.40
2023-01-13T18:45:23.678Z,17.17
2023-01-13T18:47:54.947Z,17.20
2023-01-13T18:50:25.229Z,14.33
2023-01-13T18:52:56.913Z,17.03
2023-01-13T18:55:28.967Z,16.07
2023-01-13T18:57:59.581Z,16.70
2023-01-13T19:00:31.842Z,16.17
2023-01-13T19:05:38.613Z,18.73
2023-01-13T19:08:11.737Z,17.90
2023-01-13T19:10:45.891Z,16.47
2023-01-13T19:13:16.903Z,16.63
2023-01-13T19:15:47.566Z,18.37
2023-01-13T19:18:21.517Z,21.37
2023-01-13T19:20:51.729Z,15.43
2023-01-13T19:23:24.123Z,16.33
2023-01-13T19:25:54.556Z,17.47
2023-01-13T19:28:24.816Z,22.13
2023-01-13T19:30:54.606Z,20.43
2023-01-13T19:33:24.408Z,20.80
2023-01-13T19:35:56.333Z,18.30
2023-01-13T19:38:29.163Z,17.43
2023-01-13T19:41:00.831Z,13.33
2023-01-13T19:43:47.694Z,14.07
2023-01-13T19:46:17.849Z,15.50
2023-01-13T19:48:48.984Z,15.27
2023-01-13T19:51:18.558Z,20.40
2023-01-13T19:53:49.730Z,13.27
2023-01-13T19:56:19.284Z,13.50
2023-01-13T19:58:51.414Z,14.70
2023-01-13T20:01:21.276Z,16.47
2023-01-13T20:03:52.114Z,12.63
2023-01-13T20:06:22.051Z,17.60
2023-01-13T20:08:54.340Z,13.70
2023-01-13T20:11:28.501Z,13.83
2023-01-13T20:13:59.114Z,11.33
2023-01-13T20:16:29.581Z,13.80
2023-01-13T20:18:59.226Z,16.53
2023-01-13T20:21:29.561Z,15.00
2023-01-13T20:24:01.819Z,14.27
2023-01-13T20:26:31.541Z,12.43
2023-01-13T20:29:02.380Z,18.63
2023-01-13T20:31:32.584Z,14.90
2023-01-13T20:34:02.406Z,14.70
2023-01-13T20:36:37.792Z,14.53
2023-01-13T20:39:10.357Z,15.40
2023-01-13T20:41:57.891Z,16.17
2023-01-13T20:44:27.816Z,17.40
2023-01-13T20:46:59.386Z,14.37
2023-01-13T20:49:31.191Z,18.50
2023-01-13T20:52:01.325Z,14.27
2023-01-13T20:54:33.017Z,15.00
2023-01-13T20:57:03.405Z,16.73
2023-01-13T20:59:33.278Z,15.30
2023-01-13T21:02:03.463Z,15.80
2023-01-13T21:04:33.879Z,18.37
2023-01-13T21:07:04.119Z,16.70
2023-01-13T21:09:35.820Z,15.90
2023-01-13T21:12:24.439Z,15.47
2023-01-13T21:15:11.993Z,14.67
2023-01-13T21:17:58.653Z,16.90
2023-01-13T21:20:31.046Z,17.07
2023-01-13T21:23:01.926Z,17.50
2023-01-13T21:25:35.486Z,16.37
2023-01-13T21:28:07.876Z,16.47
2023-01-13T21:30:38.780Z,19.43
2023-01-13T21:33:08.933Z,16.50
2023-01-13T21:35:42.742Z,20.27
2023-01-13T21:38:14.412Z,16.63
2023-01-13T21:40:45.991Z,15.47
2023-01-13T21:43:35.888Z,20.27
2023-01-13T21:46:28.076Z,17.60
2023-01-13T21:48:58.268Z,19.70
2023-01-13T21:51:28.627Z,15.83
2023-01-13T21:53:59.507Z,15.33
2023-01-13T21:56:31.702Z,17.00
2023-01-13T21:59:01.942Z,14.63
2023-01-13T22:01:32.321Z,17.87
2023-01-13T22:04:14.936Z,17.93
2023-01-13T22:06:44.673Z,21.03
2023-01-13T22:09:14.978Z,16.13
2023-01-13T22:11:47.074Z,19.83
2023-01-13T22:14:17.506Z,16.10
2023-01-13T22:16:50.137Z,17.80
2023-01-13T22:19:20.703Z,23.90
2023-01-13T22:21:51.086Z,14.97
2023-01-13T22:24:21.360Z,18.97
2023-01-13T22:26:54.167Z,21.53
2023-01-13T22:29:24.390Z,18.70
2023-01-13T22:31:55.141Z,18.63
2023-01-13T22:34:25.889Z,17.53
2023-01-13T22:36:56.170Z,18.33
2023-01-13T22:39:26.388Z,20.87
2023-01-13T22:41:58.592Z,19.87
2023-01-13T22:44:28.777Z,17.00
2023-01-13T22:46:58.846Z,18.27
2023-01-13T22:49:29.311Z,18.40
2023-01-13T22:51:59.742Z,18.90
2023-01-13T22:54:30.355Z,19.80
2023-01-13T22:57:02.235Z,17.83
2023-01-13T22:59:32.551Z,18.43
2023-01-13T23:02:02.807Z,23.53
2023-01-13T23:04:32.676Z,19.53
2023-01-13T23:07:02.699Z,22.23
2023-01-13T23:09:32.536Z,20.73
2023-01-13T23:12:04.540Z,20.13
2023-01-13T23:14:34.943Z,16.67
2023-01-13T23:17:05.003Z,17.40
2023-01-13T23:19:35.438Z,15.23
2023-01-13T23:22:05.355Z,17.70
2023-01-13T23:24:35.364Z,16.77
2023-01-13T23:27:07.210Z,14.90
2023-01-13T23:29:37.532Z,19.20
2023-01-13T23:32:07.801Z,14.13
2023-01-13T23:34:38.137Z,13.60
2023-01-13T23:37:08.078Z,17.20
2023-01-13T23:39:37.753Z,14.47
2023-01-13T23:42:09.167Z,17.13
2023-01-13T23:44:39.252Z,14.73
2023-01-13T23:47:09.652Z,15.00
2023-01-13T23:49:41.206Z,16.63
2023-01-13T23:52:11.925Z,13.20
2023-01-13T23:54:41.905Z,15.10
2023-01-13T23:57:13.752Z,13.97
2023-01-13T23:59:43.289Z,17.67
